createdAt,value
2023-05-24T00:00:36.574Z,37.20
2023-05-24T00:03:06.906Z,37.00
2023-05-24T00:05:37.564Z,37.40
2023-05-24T00:08:05.907Z,37.40
2023-05-24T00:10:35.256Z,37.50
2023-05-24T00:13:03.293Z,37.30
2023-05-24T00:15:32.197Z,37.90
2023-05-24T00:18:00.324Z,37.20
2023-05-24T00:20:28.782Z,37.40
2023-05-24T00:22:56.876Z,37.20
2023-05-24T00:25:25.056Z,37.50
2023-05-24T00:27:54.435Z,38.00
2023-05-24T00:30:22.463Z,37.70
2023-05-24T00:32:50.727Z,37.30
2023-05-24T00:35:18.775Z,37.30
2023-05-24T00:37:46.942Z,38.00
2023-05-24T00:40:15.364Z,37.50
2023-05-24T00:42:43.352Z,37.80
2023-05-24T00:45:13.393Z,38.10
2023-05-24T00:47:41.998Z,38.30
2023-05-24T00:50:13.070Z,38.70
2023-05-24T00:52:43.033Z,38.70
2023-05-24T00:55:12.010Z,38.10
2023-05-24T00:57:41.015Z,38.40
2023-05-24T01:00:12.681Z,38.70
2023-05-24T01:02:40.959Z,38.50
2023-05-24T01:05:13.456Z,38.20
2023-05-24T01:07:53.307Z,38.90
2023-05-24T01:10:33.141Z,39.20
2023-05-24T01:13:08.328Z,39.10
2023-05-24T01:15:49.560Z,39.20
2023-05-24T01:18:25.960Z,39.10
2023-05-24T01:21:24.480Z,39.10
2023-05-24T01:24:05.637Z,39.30
2023-05-24T01:26:41.556Z,39.50
2023-05-24T01:29:11.834Z,39.60
2023-05-24T01:31:39.969Z,39.10
2023-05-24T01:34:08.025Z,39.90
2023-05-24T01:36:38.804Z,39.70
2023-05-24T01:39:07.240Z,39.70
2023-05-24T01:41:44.405Z,40.00
2023-05-24T01:44:24.270Z,40.30
2023-05-24T01:47:03.849Z,40.30
2023-05-24T01:49:42.442Z,40.30
2023-05-24T01:52:19.333Z,40.50
2023-05-24T01:54:53.542Z,40.50
2023-05-24T01:57:23.967Z,40.60
2023-05-24T01:59:54.266Z,39.90
2023-05-24T02:02:22.857Z,40.70
2023-05-24T02:04:57.075Z,41.10
2023-05-24T02:07:25.735Z,41.50
2023-05-24T02:09:53.845Z,41.80
2023-05-24T02:12:21.892Z,41.80
2023-05-24T02:14:50.908Z,41.20
2023-05-24T02:17:20.279Z,41.30
2023-05-24T02:19:48.575Z,41.20
2023-05-24T02:22:16.645Z,40.90
2023-05-24T02:24:44.624Z,41.90
2023-05-24T02:27:12.614Z,42.00
2023-05-24T02:29:41.840Z,42.30
2023-05-24T02:32:09.926Z,42.00
2023-05-24T02:34:39.288Z,42.10
2023-05-24T02:37:07.350Z,41.70
2023-05-24T02:39:35.702Z,42.30
2023-05-24T02:42:05.787Z,42.00
2023-05-24T02:44:33.761Z,42.00
2023-05-24T02:47:01.828Z,41.70
2023-05-24T02:49:29.881Z,42.20
2023-05-24T02:51:59.284Z,41.60
2023-05-24T02:54:27.357Z,41.30
2023-05-24T02:56:56.669Z,41.60
2023-05-24T02:59:25.109Z,41.50
2023-05-24T03:01:55.145Z,41.90
2023-05-24T03:04:23.198Z,42.80
2023-05-24T03:06:51.250Z,42.00
2023-05-24T03:09:20.721Z,42.80
2023-05-24T03:11:48.776Z,41.90
2023-05-24T03:14:17.406Z,42.20
2023-05-24T03:16:46.221Z,41.20
2023-05-24T03:19:14.527Z,41.80
2023-05-24T03:21:42.588Z,41.80
2023-05-24T03:24:13.010Z,41.70
2023-05-24T03:26:42.387Z,41.90
2023-05-24T03:29:10.998Z,41.20
2023-05-24T03:31:39.065Z,41.50
2023-05-24T03:34:07.143Z,41.60
2023-05-24T03:36:36.391Z,41.50
2023-05-24T03:39:04.613Z,43.00
2023-05-24T03:41:32.613Z,42.00
2023-05-24T03:44:02.121Z,41.90
2023-05-24T03:46:30.150Z,41.60
2023-05-24T03:48:58.271Z,41.70
2023-05-24T03:51:29.437Z,41.90
2023-05-24T03:53:57.998Z,42.10
2023-05-24T03:56:27.538Z,41.80
2023-05-24T03:58:57.705Z,42.00
2023-05-24T04:01:34.241Z,41.80
2023-05-24T04:04:02.959Z,42.00
2023-05-24T04:06:31.169Z,42.20
2023-05-24T04:09:00.883Z,42.20
2023-05-24T04:11:29.059Z,42.70
2023-05-24T04:14:00.342Z,42.30
2023-05-24T04:16:34.299Z,42.50
2023-05-24T04:19:04.131Z,42.40
2023-05-24T04:21:33.246Z,40.40
2023-05-24T04:24:01.614Z,39.30
2023-05-24T04:26:29.978Z,37.90
2023-05-24T04:28:58.029Z,37.60
2023-05-24T04:31:26.337Z,37.70
2023-05-24T04:33:55.830Z,36.30
2023-05-24T04:36:25.091Z,37.10
2023-05-24T04:38:56.086Z,35.70
2023-05-24T04:41:24.431Z,36.00
2023-05-24T04:43:53.254Z,36.40
2023-05-24T04:46:22.522Z,36.50
2023-05-24T04:48:50.532Z,31.10
2023-05-24T04:51:19.930Z,34.50
2023-05-24T04:53:48.016Z,33.90
2023-05-24T04:56:16.914Z,33.90
2023-05-24T04:58:45.000Z,33.70
2023-05-24T05:01:13.020Z,32.70
2023-05-24T05:03:41.455Z,32.70
2023-05-24T05:06:09.685Z,32.80
2023-05-24T05:08:39.271Z,30.40
2023-05-24T05:11:07.717Z,32.10
2023-05-24T05:13:35.878Z,31.40
2023-05-24T05:16:04.119Z,31.60
2023-05-24T05:18:32.736Z,31.20
2023-05-24T05:21:01.247Z,28.30
2023-05-24T05:23:29.329Z,30.50
2023-05-24T05:25:58.718Z,30.80
2023-05-24T05:28:26.729Z,30.50
2023-05-24T05:30:56.794Z,30.80
2023-05-24T05:33:24.919Z,31.30
2023-05-24T05:35:54.824Z,31.30
2023-05-24T05:38:23.135Z,31.00
2023-05-24T05:40:51.186Z,31.10
2023-05-24T05:43:20.559Z,30.20
2023-05-24T05:45:48.702Z,30.70
2023-05-24T05:48:16.762Z,30.90
2023-05-24T05:50:44.947Z,30.20
2023-05-24T05:53:12.936Z,30.20
2023-05-24T05:55:41.282Z,30.40
2023-05-24T05:58:09.350Z,29.70
2023-05-24T06:00:38.790Z,29.90
2023-05-24T06:03:06.994Z,29.60
2023-05-24T06:05:35.155Z,29.60
2023-05-24T06:08:03.216Z,29.00
2023-05-24T06:10:31.232Z,29.40
2023-05-24T06:12:59.261Z,27.00
2023-05-24T06:15:27.347Z,28.50
2023-05-24T06:17:56.936Z,29.10
2023-05-24T06:20:25.483Z,27.00
2023-05-24T06:22:53.671Z,29.00
2023-05-24T06:25:24.461Z,28.70
2023-05-24T06:27:53.152Z,28.50
2023-05-24T06:30:21.981Z,28.70
2023-05-24T06:32:50.255Z,28.30
2023-05-24T06:35:19.588Z,27.90
2023-05-24T06:37:47.668Z,27.40
2023-05-24T06:40:16.070Z,27.60
2023-05-24T06:42:44.214Z,28.60
2023-05-24T06:45:13.621Z,28.40
2023-05-24T06:47:42.787Z,28.60
2023-05-24T06:50:11.131Z,24.20
2023-05-24T06:52:40.748Z,25.30
2023-05-24T06:55:09.688Z,26.40
2023-05-24T06:57:37.666Z,26.10
2023-05-24T07:00:14.583Z,24.80
2023-05-24T07:02:43.150Z,26.90
2023-05-24T07:05:12.337Z,26.70
2023-05-24T07:07:43.473Z,27.40
2023-05-24T07:10:12.696Z,26.20
2023-05-24T07:12:41.310Z,26.80
2023-05-24T07:15:11.251Z,27.20
2023-05-24T07:17:39.320Z,25.50
2023-05-24T07:20:11.198Z,25.90
2023-05-24T07:22:40.886Z,24.70
2023-05-24T07:25:11.175Z,25.30
2023-05-24T07:27:39.242Z,25.20
2023-05-24T07:30:16.765Z,23.40
2023-05-24T07:32:48.336Z,24.70
2023-05-24T07:35:16.912Z,22.00
2023-05-24T07:37:46.704Z,22.80
2023-05-24T07:40:17.375Z,22.40
2023-05-24T07:42:47.358Z,22.50
2023-05-24T07:45:15.774Z,21.40
2023-05-24T07:47:43.977Z,20.10
2023-05-24T07:50:12.865Z,22.70
2023-05-24T07:52:41.119Z,23.10
2023-05-24T07:55:11.649Z,22.90
2023-05-24T07:57:39.769Z,22.10
2023-05-24T08:00:14.249Z,22.40
2023-05-24T08:02:43.954Z,21.50
2023-05-24T08:05:13.456Z,20.70
2023-05-24T08:07:42.085Z,20.70
2023-05-24T08:10:13.482Z,19.70
2023-05-24T08:12:41.877Z,20.40
2023-05-24T08:15:11.103Z,20.20
2023-05-24T08:17:39.946Z,19.80
2023-05-24T08:20:13.405Z,19.20
2023-05-24T08:22:41.523Z,18.70
2023-05-24T08:25:12.044Z,17.00
2023-05-24T08:27:40.137Z,18.20
2023-05-24T08:30:09.756Z,16.60
2023-05-24T08:32:38.414Z,19.60
2023-05-24T08:35:19.499Z,19.20
2023-05-24T08:37:49.186Z,20.60
2023-05-24T08:40:23.840Z,20.30
2023-05-24T08:42:54.116Z,20.80
2023-05-24T08:45:23.592Z,20.50
2023-05-24T08:47:52.732Z,21.00
2023-05-24T08:50:21.371Z,20.90
2023-05-24T08:52:50.152Z,21.10
2023-05-24T08:55:20.685Z,21.60
2023-05-24T08:57:51.322Z,21.30
2023-05-24T09:00:20.938Z,21.50
2023-05-24T09:02:50.395Z,21.20
2023-05-24T09:05:21.631Z,21.60
2023-05-24T09:07:51.052Z,21.40
2023-05-24T09:10:25.224Z,21.70
2023-05-24T09:12:57.693Z,21.80
2023-05-24T09:15:26.616Z,21.60
2023-05-24T09:17:54.768Z,21.90
2023-05-24T09:20:23.159Z,21.40
2023-05-24T09:22:54.119Z,21.70
2023-05-24T09:25:23.548Z,21.70
2023-05-24T09:27:52.936Z,21.70
2023-05-24T09:30:21.978Z,21.70
2023-05-24T09:32:58.605Z,21.70
2023-05-24T09:35:28.072Z,22.30
2023-05-24T09:37:59.880Z,22.10
2023-05-24T09:40:30.754Z,22.30
2023-05-24T09:43:08.667Z,22.50
2023-05-24T09:45:42.880Z,22.20
2023-05-24T09:48:13.068Z,22.00
2023-05-24T09:51:01.132Z,22.20
2023-05-24T09:53:30.878Z,22.30
2023-05-24T09:56:00.667Z,22.20
2023-05-24T09:58:32.267Z,22.30
2023-05-24T10:01:14.779Z,22.10
2023-05-24T10:03:54.976Z,22.20
2023-05-24T10:06:26.113Z,22.30
2023-05-24T10:08:55.693Z,22.50
2023-05-24T10:11:26.216Z,22.50
2023-05-24T10:13:54.791Z,22.60
2023-05-24T10:16:22.993Z,22.30
2023-05-24T10:18:51.651Z,22.40
2023-05-24T10:21:22.735Z,22.20
2023-05-24T10:23:58.929Z,22.40
2023-05-24T10:26:33.739Z,22.20
2023-05-24T10:29:09.436Z,22.30
2023-05-24T10:31:41.329Z,22.50
2023-05-24T10:34:10.489Z,22.40
2023-05-24T10:36:40.945Z,22.50
2023-05-24T10:39:12.249Z,22.50
2023-05-24T10:42:01.263Z,22.30
2023-05-24T10:44:31.457Z,22.30
2023-05-24T10:47:11.127Z,22.70
2023-05-24T10:49:40.703Z,22.80
2023-05-24T10:52:10.138Z,22.70
2023-05-24T10:54:42.852Z,22.80
2023-05-24T10:57:24.328Z,22.50
2023-05-24T10:59:52.407Z,22.50
2023-05-24T11:02:20.854Z,22.10
2023-05-24T11:04:50.346Z,21.70
2023-05-24T11:07:20.903Z,21.70
2023-05-24T11:09:56.168Z,21.70
2023-05-24T11:15:28.425Z,21.90
2023-05-24T11:18:16.268Z,22.00
2023-05-24T11:20:49.674Z,21.80
2023-05-24T11:23:18.100Z,21.70
2023-05-24T11:25:48.883Z,22.00
2023-05-24T11:28:19.280Z,21.80
2023-05-24T11:30:48.863Z,20.70
2023-05-24T11:33:18.637Z,21.90
2023-05-24T11:35:47.421Z,21.80
2023-05-24T11:38:17.105Z,22.00
2023-05-24T11:40:47.329Z,21.70
2023-05-24T11:43:18.465Z,20.80
2023-05-24T11:45:49.661Z,21.70
2023-05-24T11:48:19.323Z,22.00
2023-05-24T11:50:50.642Z,21.10
2023-05-24T11:53:21.032Z,21.70
2023-05-24T11:55:51.365Z,20.70
2023-05-24T11:58:26.640Z,21.20
2023-05-24T12:00:54.844Z,21.30
2023-05-24T12:03:23.185Z,21.10
2023-05-24T12:05:52.719Z,20.60
2023-05-24T12:08:21.212Z,21.70
2023-05-24T12:10:51.598Z,21.20
2023-05-24T12:13:24.151Z,20.90
2023-05-24T12:15:55.574Z,21.20
2023-05-24T12:18:27.947Z,21.00
2023-05-24T12:20:56.247Z,21.30
2023-05-24T12:23:29.484Z,21.20
2023-05-24T12:26:00.822Z,21.20
2023-05-24T12:28:36.836Z,21.20
2023-05-24T12:31:05.646Z,21.80
2023-05-24T12:33:34.628Z,21.40
2023-05-24T12:36:02.776Z,21.50
2023-05-24T12:38:33.013Z,21.30
2023-05-24T12:41:11.458Z,21.10
2023-05-24T12:43:44.776Z,20.80
2023-05-24T12:46:13.066Z,20.80
2023-05-24T12:48:41.138Z,21.00
2023-05-24T12:51:09.840Z,21.20
2023-05-24T12:53:37.960Z,20.80
2023-05-24T12:56:06.686Z,21.00
2023-05-24T12:58:35.952Z,20.80
2023-05-24T13:01:05.697Z,20.70
2023-05-24T13:03:34.989Z,20.60
2023-05-24T13:06:03.207Z,20.60
2023-05-24T13:08:31.255Z,20.30
2023-05-24T13:10:59.693Z,20.20
2023-05-24T13:13:28.766Z,20.30
2023-05-24T13:15:57.006Z,20.10
2023-05-24T13:18:27.070Z,19.90
2023-05-24T13:20:55.183Z,20.00
2023-05-24T13:23:24.272Z,19.80
2023-05-24T13:25:52.431Z,19.90
2023-05-24T13:28:20.651Z,20.20
2023-05-24T13:30:48.866Z,20.00
2023-05-24T13:33:17.166Z,19.90
2023-05-24T13:35:46.825Z,19.70
2023-05-24T13:38:14.984Z,19.60
2023-05-24T13:40:43.422Z,19.60
2023-05-24T13:43:11.778Z,19.70
2023-05-24T13:45:43.368Z,19.30
2023-05-24T13:48:11.768Z,19.40
2023-05-24T13:50:40.206Z,19.60
2023-05-24T13:53:09.676Z,19.50
2023-05-24T13:55:38.679Z,19.40
2023-05-24T13:58:06.862Z,19.90
2023-05-24T14:00:42.550Z,20.70
2023-05-24T14:03:12.877Z,20.30
2023-05-24T14:05:41.552Z,19.40
2023-05-24T14:08:11.056Z,19.30
2023-05-24T14:10:39.134Z,20.00
2023-05-24T14:15:39.065Z,20.30
2023-05-24T14:18:08.190Z,20.10
2023-05-24T14:20:38.581Z,20.20
2023-05-24T14:23:07.762Z,20.50
2023-05-24T14:25:51.582Z,20.60
2023-05-24T14:28:20.617Z,20.50
2023-05-24T14:30:48.653Z,20.80
2023-05-24T14:33:16.717Z,20.60
2023-05-24T14:35:45.196Z,20.60
2023-05-24T14:38:13.677Z,20.80
2023-05-24T14:40:47.152Z,21.00
2023-05-24T14:43:15.430Z,20.20
2023-05-24T14:45:44.059Z,19.40
2023-05-24T14:48:12.768Z,19.40
2023-05-24T14:50:42.400Z,19.70
2023-05-24T14:53:12.318Z,19.70
2023-05-24T14:55:44.021Z,19.60
2023-05-24T14:58:12.889Z,18.90
2023-05-24T15:00:42.286Z,18.80
2023-05-24T15:03:12.402Z,18.60
2023-05-24T15:05:41.597Z,19.10
2023-05-24T15:08:10.823Z,18.60
2023-05-24T15:10:39.910Z,18.60
2023-05-24T15:13:09.305Z,18.10
2023-05-24T15:15:37.383Z,18.20
2023-05-24T15:18:05.734Z,18.10
2023-05-24T15:20:35.707Z,18.00
2023-05-24T15:23:04.756Z,18.40
2023-05-24T15:25:32.769Z,17.60
2023-05-24T15:28:01.181Z,18.00
2023-05-24T15:30:30.592Z,18.00
2023-05-24T15:32:59.060Z,17.40
2023-05-24T15:35:27.253Z,17.60
2023-05-24T15:37:55.354Z,17.80
2023-05-24T15:40:24.474Z,17.80
2023-05-24T15:42:53.707Z,17.50
2023-05-24T15:45:21.908Z,17.50
2023-05-24T15:47:51.327Z,17.20
2023-05-24T15:50:28.457Z,17.10
2023-05-24T15:53:00.532Z,17.30
2023-05-24T15:55:28.646Z,17.40
2023-05-24T15:57:58.310Z,16.90
2023-05-24T16:00:26.868Z,17.50
2023-05-24T16:02:57.042Z,17.50
2023-05-24T16:05:26.842Z,17.60
2023-05-24T16:07:54.895Z,16.90
2023-05-24T16:10:23.002Z,17.50
2023-05-24T16:12:51.322Z,18.10
2023-05-24T16:15:19.397Z,17.80
2023-05-24T16:17:47.520Z,17.80
2023-05-24T16:20:17.071Z,18.10
2023-05-24T16:22:55.509Z,17.80
2023-05-24T16:25:23.526Z,17.90
2023-05-24T16:27:51.482Z,17.80
2023-05-24T16:30:19.944Z,17.50
2023-05-24T16:32:47.999Z,17.60
2023-05-24T16:35:17.559Z,17.40
2023-05-24T16:37:45.718Z,17.40
2023-05-24T16:40:14.031Z,17.70
2023-05-24T16:43:51.818Z,17.80
2023-05-24T16:46:19.994Z,18.00
2023-05-24T16:48:48.074Z,18.10
2023-05-24T16:51:18.844Z,18.20
2023-05-24T16:53:47.132Z,17.70
2023-05-24T16:56:15.287Z,18.20
2023-05-24T16:58:43.937Z,18.50
2023-05-24T17:01:12.055Z,19.50
2023-05-24T17:03:40.188Z,19.30
2023-05-24T17:06:08.675Z,18.70
2023-05-24T17:08:38.433Z,19.50
2023-05-24T17:11:07.455Z,18.90
2023-05-24T17:13:36.164Z,19.00
2023-05-24T17:16:05.162Z,18.80
2023-05-24T17:18:33.260Z,19.10
2023-05-24T17:21:04.144Z,18.70
2023-05-24T17:23:34.756Z,18.80
2023-05-24T17:26:05.609Z,19.50
2023-05-24T17:28:36.652Z,19.40
2023-05-24T17:31:05.020Z,19.40
2023-05-24T17:33:33.237Z,19.40
2023-05-24T17:36:03.209Z,18.80
2023-05-24T17:38:33.000Z,18.50
2023-05-24T17:41:03.033Z,18.20
2023-05-24T17:43:32.133Z,18.10
2023-05-24T17:46:06.089Z,18.10
2023-05-24T17:48:36.510Z,18.00
2023-05-24T17:51:08.433Z,18.60
2023-05-24T17:53:38.038Z,19.40
2023-05-24T17:56:08.787Z,19.90
2023-05-24T17:58:37.513Z,20.50
2023-05-24T18:01:07.855Z,20.60
2023-05-24T18:03:37.863Z,20.70
2023-05-24T18:06:07.672Z,21.30
2023-05-24T18:08:38.318Z,21.70
2023-05-24T18:11:09.423Z,21.30
2023-05-24T18:13:39.105Z,21.70
2023-05-24T18:16:07.954Z,21.70
2023-05-24T18:18:37.546Z,21.00
2023-05-24T18:21:06.565Z,20.30
2023-05-24T18:23:37.358Z,20.00
2023-05-24T18:26:10.185Z,20.70
2023-05-24T18:28:39.590Z,21.10
2023-05-24T18:31:10.372Z,20.90
2023-05-24T18:33:39.115Z,20.60
2023-05-24T18:36:08.497Z,21.30
2023-05-24T18:38:39.730Z,20.80
2023-05-24T18:41:11.875Z,21.40
2023-05-24T18:43:42.086Z,20.60
2023-05-24T18:46:13.248Z,21.20
2023-05-24T18:48:41.597Z,21.20
2023-05-24T18:51:09.964Z,21.30
2023-05-24T18:53:38.028Z,21.00
2023-05-24T18:56:08.101Z,21.30
2023-05-24T18:58:36.205Z,21.30
2023-05-24T19:01:04.554Z,20.90
2023-05-24T19:03:32.684Z,20.70
2023-05-24T19:06:00.819Z,20.70
2023-05-24T19:08:28.949Z,20.80
2023-05-24T19:10:56.983Z,20.60
2023-05-24T19:13:27.470Z,20.60
2023-05-24T19:15:57.500Z,21.00
2023-05-24T19:18:25.692Z,21.10
2023-05-24T19:20:54.094Z,20.50
2023-05-24T19:23:22.155Z,20.30
2023-05-24T19:25:50.546Z,20.70
2023-05-24T19:28:18.637Z,20.90
2023-05-24T19:30:48.009Z,21.00
2023-05-24T19:33:16.109Z,21.00
2023-05-24T19:35:44.603Z,21.70
2023-05-24T19:38:15.060Z,21.40
2023-05-24T19:40:43.096Z,21.30
2023-05-24T19:43:11.163Z,22.10
2023-05-24T19:45:44.165Z,22.20
2023-05-24T19:48:13.988Z,22.40
2023-05-24T19:50:41.967Z,22.00
2023-05-24T19:53:10.047Z,21.90
2023-05-24T19:55:38.095Z,22.60
2023-05-24T19:58:06.170Z,22.60
2023-05-24T20:00:34.307Z,22.40
2023-05-24T20:03:02.655Z,22.70
2023-05-24T20:05:32.142Z,22.80
2023-05-24T20:08:00.682Z,23.00
2023-05-24T20:10:30.060Z,23.00
2023-05-24T20:12:58.378Z,23.70
2023-05-24T20:15:28.226Z,24.00
2023-05-24T20:17:56.642Z,23.10
2023-05-24T20:20:25.757Z,23.30
2023-05-24T20:22:55.134Z,22.60
2023-05-24T20:25:23.164Z,23.90
2023-05-24T20:27:51.319Z,23.00
2023-05-24T20:30:19.788Z,23.90
2023-05-24T20:32:47.941Z,24.00
2023-05-24T20:35:16.039Z,23.80
2023-05-24T20:37:44.398Z,23.70
2023-05-24T20:40:22.648Z,23.30
2023-05-24T20:42:50.722Z,24.30
2023-05-24T20:45:18.912Z,24.30
2023-05-24T20:47:46.991Z,24.30
2023-05-24T20:50:15.493Z,23.70
2023-05-24T20:52:43.831Z,24.10
2023-05-24T20:55:13.332Z,24.00
2023-05-24T20:57:41.473Z,23.90
2023-05-24T21:00:11.037Z,24.60
2023-05-24T21:02:40.125Z,24.80
2023-05-24T21:05:09.091Z,24.70
2023-05-24T21:07:37.230Z,24.90
2023-05-24T21:10:06.157Z,25.00
2023-05-24T21:12:35.761Z,25.00
2023-05-24T21:15:03.987Z,24.90
2023-05-24T21:17:31.950Z,25.40
2023-05-24T21:20:00.287Z,25.30
2023-05-24T21:22:28.718Z,25.60
2023-05-24T21:24:56.901Z,25.10
2023-05-24T21:27:25.047Z,25.40
2023-05-24T21:29:54.399Z,25.50
2023-05-24T21:32:22.402Z,25.60
2023-05-24T21:34:50.674Z,25.80
2023-05-24T21:37:18.664Z,25.70
2023-05-24T21:39:47.248Z,26.00
2023-05-24T21:42:15.267Z,26.00
2023-05-24T21:44:43.326Z,25.80
2023-05-24T21:47:12.674Z,25.90
2023-05-24T21:49:40.843Z,26.30
2023-05-24T21:52:08.886Z,26.10
2023-05-24T21:54:36.957Z,26.20
2023-05-24T21:57:07.064Z,26.40
2023-05-24T21:59:35.226Z,26.30
2023-05-24T22:02:03.366Z,26.60
2023-05-24T22:04:32.809Z,26.30
2023-05-24T22:07:00.894Z,26.40
2023-05-24T22:09:28.916Z,26.70
2023-05-24T22:11:57.085Z,26.70
2023-05-24T22:14:25.204Z,26.70
2023-05-24T22:16:53.325Z,27.10
2023-05-24T22:19:38.312Z,26.90
2023-05-24T22:22:09.821Z,27.30
2023-05-24T22:24:37.890Z,27.00
2023-05-24T22:27:16.147Z,27.50
2023-05-24T22:29:44.295Z,27.50
2023-05-24T22:32:12.357Z,27.50
2023-05-24T22:34:40.553Z,27.50
2023-05-24T22:37:09.892Z,27.80
2023-05-24T22:39:37.911Z,27.50
2023-05-24T22:42:06.423Z,27.60
2023-05-24T22:44:34.521Z,27.90
2023-05-24T22:47:03.224Z,28.00
2023-05-24T22:49:33.803Z,28.10
2023-05-24T22:52:01.900Z,27.70
2023-05-24T22:54:31.364Z,28.30
2023-05-24T22:56:59.506Z,28.10
2023-05-24T22:59:27.521Z,28.20
2023-05-24T23:01:55.586Z,28.50
2023-05-24T23:04:23.689Z,28.40
2023-05-24T23:06:53.467Z,28.00
2023-05-24T23:09:28.887Z,28.30
2023-05-24T23:11:58.880Z,28.50
2023-05-24T23:14:31.116Z,28.20
2023-05-24T23:17:02.309Z,28.30
2023-05-24T23:19:30.978Z,28.20
2023-05-24T23:21:59.019Z,28.30
2023-05-24T23:24:27.011Z,28.60
2023-05-24T23:26:55.812Z,28.60
2023-05-24T23:29:25.341Z,28.60
2023-05-24T23:31:53.313Z,28.60
2023-05-24T23:34:21.429Z,28.70
2023-05-24T23:36:49.435Z,28.70
2023-05-24T23:39:17.494Z,28.60
2023-05-24T23:41:45.524Z,29.40
2023-05-24T23:44:13.591Z,29.10
2023-05-24T23:46:42.980Z,29.50
2023-05-24T23:49:11.101Z,29.30
2023-05-24T23:51:39.051Z,29.30
2023-05-24T23:54:07.268Z,29.50
2023-05-24T23:56:36.807Z,29.50
2023-05-24T23:59:04.822Z,29.50
